Time;durP1;ratioP1;P1;durP2;ratioP2;P2;SDS_P1;SDS_P2;PMS_P1;PMS_P2;Temp;Humidity;BMP_temperature;BMP_pressure;BME280_temperature;BME280_humidity;BME280_pressure;Samples;Min_cycle;Max_cycle;Signal;HPM_P1;HPM_P2
2023/08/30 00:00:39;;;;;;;17.97;15.90;;;10.80;99.90;;;;;;2064473;28;20230;-69
2023/08/30 00:01:40;;;;;;;23.43;18.43;;;10.60;99.90;;;;;;2064150;28;20236;-68
2023/08/30 00:02:41;;;;;;;16.17;14.23;;;10.60;99.90;;;;;;2063741;28;20612;-69
2023/08/30 00:03:41;;;;;;;18.00;15.43;;;10.60;99.90;;;;;;2055425;28;20357;-67
2023/08/30 00:04:42;;;;;;;17.17;15.20;;;10.70;99.90;;;;;;2065034;28;20482;-66
2023/08/30 00:05:43;;;;;;;18.70;15.47;;;10.60;99.90;;;;;;2068704;28;20252;-68
2023/08/30 00:06:44;;;;;;;19.83;16.70;;;10.60;99.90;;;;;;2066307;28;20236;-66
2023/08/30 00:07:44;;;;;;;16.63;14.33;;;10.60;99.90;;;;;;2062951;28;20225;-66
2023/08/30 00:08:45;;;;;;;15.33;13.83;;;10.60;99.90;;;;;;2064407;28;20231;-68
2023/08/30 00:09:46;;;;;;;19.07;13.93;;;10.60;99.90;;;;;;2055947;28;20226;-68
2023/08/30 00:10:47;;;;;;;14.80;12.63;;;10.70;99.90;;;;;;2064264;28;20283;-67
2023/08/30 00:11:48;;;;;;;13.90;12.20;;;10.70;99.90;;;;;;2071741;28;20231;-67
2023/08/30 00:12:48;;;;;;;16.53;14.20;;;10.70;99.90;;;;;;2072046;28;20228;-68
2023/08/30 00:13:49;;;;;;;18.77;15.60;;;10.70;99.90;;;;;;2064262;28;20222;-68
2023/08/30 00:14:51;;;;;;;16.25;13.25;;;10.50;99.90;;;;;;2063511;28;20222;-68
2023/08/30 00:15:52;;;;;;;17.05;14.00;;;10.40;99.90;;;;;;2047117;28;20215;-68
2023/08/30 00:16:52;;;;;;;19.97;15.87;;;10.40;99.90;;;;;;2047397;28;20215;-68
2023/08/30 00:17:53;;;;;;;22.00;17.23;;;10.30;99.90;;;;;;2059193;28;20249;-68
2023/08/30 00:18:54;;;;;;;20.90;16.17;;;10.30;99.90;;;;;;2063377;28;20218;-68
2023/08/30 00:19:55;;;;;;;18.10;14.97;;;10.30;99.90;;;;;;2066751;28;20217;-67
2023/08/30 00:20:57;;;;;;;16.48;14.00;;;10.30;99.90;;;;;;2059074;28;20684;-67
2023/08/30 00:21:57;;;;;;;22.75;16.67;;;10.20;99.90;;;;;;2048452;28;20230;-68
2023/08/30 00:22:58;;;;;;;18.70;14.70;;;10.20;99.90;;;;;;2066299;28;20258;-68
2023/08/30 00:24:00;;;;;;;18.40;15.27;;;10.30;99.90;;;;;;2063926;28;20225;-68
2023/08/30 00:25:01;;;;;;;19.45;15.25;;;10.30;99.90;;;;;;2063909;28;20709;-68
2023/08/30 00:26:01;;;;;;;19.60;15.90;;;10.30;99.90;;;;;;2063371;28;20309;-68
2023/08/30 00:27:03;;;;;;;17.37;15.37;;;10.30;99.90;;;;;;2062036;28;20217;-69
2023/08/30 00:28:04;;;;;;;21.80;15.15;;;10.30;99.90;;;;;;2063848;28;20733;-68
2023/08/30 00:29:05;;;;;;;18.97;16.27;;;10.30;99.90;;;;;;2063161;28;20185;-68
2023/08/30 00:30:09;;;;;;;16.70;14.67;;;10.30;99.90;;;;;;2063333;28;20282;-68
2023/08/30 00:31:09;;;;;;;16.13;14.40;;;10.30;99.90;;;;;;2060058;28;20209;-68
2023/08/30 00:32:10;;;;;;;14.77;13.20;;;10.20;99.90;;;;;;2053238;28;20199;-68
2023/08/30 00:33:11;;;;;;;18.50;14.57;;;10.10;99.90;;;;;;2065098;28;20238;-68
2023/08/30 00:34:12;;;;;;;16.90;15.07;;;10.10;99.90;;;;;;2067285;28;20190;-68
2023/08/30 00:35:12;;;;;;;23.08;17.27;;;10.00;99.90;;;;;;2056588;28;20190;-68
2023/08/30 00:36:13;;;;;;;18.80;15.70;;;10.00;99.90;;;;;;2057039;28;20198;-67
2023/08/30 00:37:14;;;;;;;20.77;15.77;;;10.00;99.90;;;;;;2072901;28;20295;-67
2023/08/30 00:38:15;;;;;;;25.00;18.07;;;10.00;99.90;;;;;;2065532;28;20360;-68
2023/08/30 00:39:16;;;;;;;18.92;15.45;;;10.00;99.90;;;;;;2065159;28;20190;-68
2023/08/30 00:40:16;;;;;;;24.17;17.37;;;10.00;99.90;;;;;;2064747;28;20189;-68
2023/08/30 00:41:17;;;;;;;20.70;16.33;;;9.90;99.90;;;;;;2062809;28;20206;-68
2023/08/30 00:42:18;;;;;;;20.00;15.50;;;9.90;99.90;;;;;;2064825;28;20216;-68
2023/08/30 00:43:22;;;;;;;20.30;15.43;;;9.90;99.90;;;;;;2063989;28;20206;-67
2023/08/30 00:44:22;;;;;;;20.83;15.50;;;9.90;99.90;;;;;;2063249;28;20244;-68
2023/08/30 00:45:24;;;;;;;14.97;13.33;;;10.00;99.90;;;;;;2063551;28;20244;-68
2023/08/30 00:46:25;;;;;;;14.35;12.85;;;9.90;99.90;;;;;;2066870;28;20232;-68
2023/08/30 00:47:25;;;;;;;18.37;14.33;;;9.90;99.90;;;;;;2071331;28;20311;-68
2023/08/30 00:48:27;;;;;;;18.90;14.60;;;9.90;99.90;;;;;;2063183;28;20229;-68
2023/08/30 00:49:29;;;;;;;18.73;14.45;;;9.90;99.90;;;;;;2063297;28;20233;-67
2023/08/30 00:50:30;;;;;;;14.20;12.70;;;9.90;99.90;;;;;;2067623;28;20221;-69
2023/08/30 00:51:32;;;;;;;18.13;13.83;;;9.90;99.90;;;;;;2062648;28;20702;-68
2023/08/30 00:52:33;;;;;;;21.63;16.77;;;9.90;99.90;;;;;;2055124;28;20262;-68
2023/08/30 00:53:34;;;;;;;21.67;17.03;;;9.90;99.90;;;;;;2053967;28;20242;-68
2023/08/30 00:54:35;;;;;;;18.75;14.65;;;9.90;99.90;;;;;;2054143;28;20230;-68
2023/08/30 00:55:37;;;;;;;24.00;15.43;;;9.90;99.90;;;;;;2062665;28;20713;-68
2023/08/30 00:56:38;;;;;;;18.25;15.25;;;9.90;99.90;;;;;;2065008;28;20263;-68
2023/08/30 00:57:39;;;;;;;20.73;15.83;;;9.80;99.90;;;;;;2066419;28;20275;-68
2023/08/30 00:58:40;;;;;;;20.25;15.93;;;9.80;99.90;;;;;;2066384;28;20222;-68
2023/08/30 00:59:40;;;;;;;23.70;16.37;;;9.70;99.90;;;;;;2063744;28;20617;-68
2023/08/30 01:00:41;;;;;;;17.23;12.60;;;9.80;99.90;;;;;;2063087;28;20237;-68
2023/08/30 01:01:42;;;;;;;18.13;14.63;;;9.90;99.90;;;;;;2044888;28;20229;-68
2023/08/30 01:02:43;;;;;;;21.07;16.30;;;9.90;99.90;;;;;;2049204;28;20684;-68
2023/08/30 01:03:44;;;;;;;25.07;17.40;;;9.90;99.90;;;;;;2062253;28;20332;-68
2023/08/30 01:04:45;;;;;;;21.80;17.17;;;9.90;99.90;;;;;;2062427;28;20741;-68
2023/08/30 01:05:46;;;;;;;18.08;14.88;;;9.80;99.90;;;;;;2062263;28;20214;-68
2023/08/30 01:06:48;;;;;;;19.77;15.47;;;9.80;99.90;;;;;;2063020;28;20273;-68
2023/08/30 01:07:52;;;;;;;18.48;15.50;;;9.80;99.90;;;;;;2062300;28;20309;-68
2023/08/30 01:08:53;;;;;;;17.92;14.15;;;9.80;99.90;;;;;;2047027;28;20223;-68
2023/08/30 01:09:54;;;;;;;19.53;15.20;;;9.80;99.90;;;;;;2052871;28;20281;-68
2023/08/30 01:11:17;;;;;;;19.70;15.75;;;9.80;99.90;;;;;;2056310;28;20304;-69
2023/08/30 01:12:37;;;;;;;13.90;11.52;;;9.80;99.90;;;;;;2060757;28;20221;-68
2023/08/30 01:13:45;;;;;;;12.80;11.23;;;9.80;99.90;;;;;;2059125;28;20233;-68
2023/08/30 01:15:05;;;;;;;18.10;14.48;;;9.90;99.90;;;;;;2054817;28;20233;-68
2023/08/30 01:16:07;;;;;;;13.93;12.50;;;9.90;99.90;;;;;;2055826;28;20262;-69
2023/08/30 01:17:10;;;;;;;18.08;14.68;;;9.90;99.90;;;;;;2054926;28;20624;-69
2023/08/30 01:18:12;;;;;;;15.27;12.52;;;10.00;99.90;;;;;;2060826;28;20201;-68
2023/08/30 01:19:37;;;;;;;23.15;16.83;;;9.90;99.90;;;;;;2055065;28;20270;-68
2023/08/30 01:20:39;;;;;;;17.98;13.35;;;10.00;99.90;;;;;;2054420;28;20239;-68
2023/08/30 01:22:04;;;;;;;16.15;13.50;;;9.90;99.90;;;;;;2048360;28;20699;-68
2023/08/30 01:23:34;;;;;;;13.20;11.30;;;9.90;99.90;;;;;;2058916;28;20231;-69
2023/08/30 01:24:59;;;;;;;16.50;13.50;;;9.90;99.90;;;;;;2062543;28;20328;-68
2023/08/30 01:26:14;;;;;;;15.63;12.85;;;9.80;99.90;;;;;;2063254;28;20220;-68
2023/08/30 01:27:16;;;;;;;15.02;12.40;;;9.80;99.90;;;;;;2056934;28;20224;-68
2023/08/30 01:28:21;;;;;;;12.68;11.15;;;9.80;99.90;;;;;;2050658;28;20291;-68
2023/08/30 01:29:24;;;;;;;15.40;13.23;;;9.80;99.90;;;;;;2055044;28;20296;-68
2023/08/30 01:30:26;;;;;;;14.55;12.93;;;9.70;99.90;;;;;;2053206;28;20262;-68
2023/08/30 01:31:30;;;;;;;19.27;15.10;;;9.80;99.90;;;;;;2032884;28;20634;-68
2023/08/30 01:32:33;;;;;;;14.98;12.95;;;9.80;99.90;;;;;;2049878;28;20234;-68
2023/08/30 01:33:36;;;;;;;13.07;11.77;;;9.80;99.90;;;;;;2056448;28;20237;-68
2023/08/30 01:34:42;;;;;;;15.07;13.25;;;9.80;99.90;;;;;;2062060;28;20264;-68
2023/08/30 01:35:43;;;;;;;18.02;14.73;;;9.80;99.90;;;;;;2060965;28;20225;-68
2023/08/30 01:36:44;;;;;;;14.13;12.05;;;9.70;99.90;;;;;;2053887;28;20265;-68
2023/08/30 01:37:47;;;;;;;17.57;13.33;;;9.70;99.90;;;;;;2050376;28;20245;-68
2023/08/30 01:38:48;;;;;;;14.80;12.63;;;9.60;99.90;;;;;;2046674;28;20311;-68
2023/08/30 01:39:50;;;;;;;16.88;13.82;;;9.50;99.90;;;;;;2053962;28;20602;-68
2023/08/30 01:40:51;;;;;;;17.08;13.98;;;9.50;99.90;;;;;;2057150;28;20770;-68
2023/08/30 01:41:58;;;;;;;16.05;13.65;;;9.60;99.90;;;;;;2061893;28;20295;-68
2023/08/30 01:43:00;;;;;;;13.38;11.82;;;9.60;99.90;;;;;;2056592;28;20226;-68
2023/08/30 01:44:03;;;;;;;13.07;11.68;;;9.60;99.90;;;;;;2054908;28;20308;-68
2023/08/30 01:45:08;;;;;;;16.13;13.73;;;9.60;99.90;;;;;;2043000;28;20253;-69
2023/08/30 01:46:09;;;;;;;12.98;11.68;;;9.60;99.90;;;;;;2042627;28;20190;-68
2023/08/30 01:47:09;;;;;;;16.40;12.52;;;9.60;99.90;;;;;;2053263;28;20248;-68
2023/08/30 01:48:15;;;;;;;15.77;12.30;;;9.60;99.90;;;;;;2049085;28;20738;-69
2023/08/30 01:49:17;;;;;;;13.70;12.25;;;9.60;99.90;;;;;;2062446;28;20708;-68
2023/08/30 01:50:19;;;;;;;12.45;10.73;;;9.50;99.90;;;;;;2061863;28;20699;-68
2023/08/30 01:51:20;;;;;;;12.70;11.23;;;9.60;99.90;;;;;;2061464;28;20227;-68
2023/08/30 01:52:23;;;;;;;12.53;10.90;;;9.50;99.90;;;;;;2054354;28;20191;-68
2023/08/30 01:53:24;;;;;;;13.50;11.48;;;9.50;99.90;;;;;;2055432;28;20234;-68
2023/08/30 01:54:26;;;;;;;16.52;13.25;;;9.50;99.90;;;;;;2052493;28;20317;-69
2023/08/30 01:55:29;;;;;;;13.48;11.73;;;9.50;99.90;;;;;;2061437;28;20309;-68
2023/08/30 01:56:30;;;;;;;16.83;13.13;;;9.40;99.90;;;;;;2065677;28;20771;-68
2023/08/30 01:57:31;;;;;;;14.63;10.63;;;9.50;99.90;;;;;;2066425;28;20306;-68
2023/08/30 01:58:32;;;;;;;15.90;13.07;;;9.50;99.90;;;;;;2061955;28;20233;-68
2023/08/30 01:59:33;;;;;;;16.60;13.10;;;9.50;99.90;;;;;;2054533;28;20762;-68
2023/08/30 02:00:39;;;;;;;15.77;13.57;;;9.40;99.90;;;;;;2062275;28;20303;-68
2023/08/30 02:01:39;;;;;;;16.88;13.48;;;9.30;99.90;;;;;;2061467;28;20714;-68
2023/08/30 02:02:41;;;;;;;18.50;14.47;;;9.20;99.90;;;;;;2051921;28;20310;-68
2023/08/30 02:03:45;;;;;;;14.90;12.45;;;9.20;99.90;;;;;;2061238;28;20244;-68
2023/08/30 02:04:45;;;;;;;15.63;13.05;;;9.20;99.90;;;;;;2052999;28;20285;-68
2023/08/30 02:06:18;;;;;;;15.03;12.47;;;9.20;99.90;;;;;;2053248;28;20701;-68
2023/08/30 02:07:33;;;;;;;14.63;11.50;;;9.20;99.90;;;;;;2060505;28;20631;-68
2023/08/30 02:08:42;;;;;;;12.32;10.63;;;9.30;99.90;;;;;;2065022;28;20242;-68
2023/08/30 02:10:05;;;;;;;14.95;12.90;;;9.30;99.90;;;;;;2063805;28;20699;-68
2023/08/30 02:11:13;;;;;;;17.00;13.02;;;9.10;99.90;;;;;;2051566;28;21206;-68
2023/08/30 02:12:16;;;;;;;16.50;13.43;;;9.10;99.90;;;;;;2069715;28;20720;-68
2023/08/30 02:13:19;;;;;;;14.35;12.32;;;9.10;99.90;;;;;;2060934;28;20688;-68
2023/08/30 02:14:21;;;;;;;14.07;12.27;;;9.20;99.90;;;;;;2061608;28;20196;-68
2023/08/30 02:15:26;;;;;;;13.38;11.98;;;9.20;99.90;;;;;;2061826;28;20284;-68
2023/08/30 02:16:28;;;;;;;17.67;14.77;;;9.20;99.90;;;;;;2060348;28;20226;-68
2023/08/30 02:17:30;;;;;;;15.63;13.30;;;9.20;99.90;;;;;;2069457;28;20227;-68
2023/08/30 02:18:31;;;;;;;19.75;15.13;;;9.20;99.90;;;;;;2062044;28;20289;-68
2023/08/30 02:19:33;;;;;;;14.83;12.63;;;9.20;99.90;;;;;;2061717;28;20225;-68
2023/08/30 02:20:34;;;;;;;13.88;12.23;;;9.20;99.90;;;;;;2055893;28;20223;-68
2023/08/30 02:21:34;;;;;;;15.17;12.50;;;9.30;99.90;;;;;;2055756;28;20230;-68
2023/08/30 02:22:35;;;;;;;12.50;11.20;;;9.30;99.90;;;;;;2063257;28;20224;-68
2023/08/30 02:23:36;;;;;;;14.77;13.03;;;9.30;99.90;;;;;;2049447;28;20332;-68
2023/08/30 02:24:36;;;;;;;16.30;13.90;;;9.40;99.90;;;;;;2061447;28;20844;-68
2023/08/30 02:25:37;;;;;;;13.57;11.93;;;9.40;99.90;;;;;;2058583;28;20236;-68
2023/08/30 02:26:38;;;;;;;10.93;9.83;;;9.40;99.90;;;;;;2061065;28;20232;-68
2023/08/30 02:27:39;;;;;;;11.63;10.00;;;9.50;99.90;;;;;;2061778;28;20967;-68
2023/08/30 02:28:40;;;;;;;13.37;11.70;;;9.50;99.90;;;;;;2062888;28;20238;-68
2023/08/30 02:29:40;;;;;;;11.87;10.43;;;9.40;99.90;;;;;;2062608;28;20226;-68
2023/08/30 02:30:41;;;;;;;12.70;10.83;;;9.40;99.90;;;;;;2062674;28;20726;-68
2023/08/30 02:31:42;;;;;;;11.83;10.70;;;9.30;99.90;;;;;;2062805;28;20318;-68
2023/08/30 02:32:42;;;;;;;12.77;11.40;;;9.30;99.90;;;;;;2061622;28;20238;-68
2023/08/30 02:33:43;;;;;;;12.53;11.33;;;9.30;99.90;;;;;;2050433;28;20713;-68
2023/08/30 02:34:44;;;;;;;14.27;12.00;;;9.20;99.90;;;;;;2043721;28;20241;-68
2023/08/30 02:35:45;;;;;;;14.43;12.27;;;9.20;99.90;;;;;;2040786;28;20238;-68
2023/08/30 02:36:45;;;;;;;14.82;12.90;;;9.20;99.90;;;;;;2057703;28;20227;-68
2023/08/30 02:37:46;;;;;;;11.97;10.60;;;9.20;99.90;;;;;;2065789;28;20312;-68
2023/08/30 02:38:47;;;;;;;13.03;11.53;;;9.20;99.90;;;;;;2061694;28;20247;-68
2023/08/30 02:39:48;;;;;;;12.77;10.87;;;9.20;99.90;;;;;;2062218;28;20288;-68
2023/08/30 02:40:49;;;;;;;13.23;11.60;;;9.20;99.90;;;;;;2069416;28;20231;-68
2023/08/30 02:41:49;;;;;;;12.37;10.70;;;9.20;99.90;;;;;;2070267;28;20240;-69
2023/08/30 02:42:50;;;;;;;12.87;11.33;;;9.20;99.90;;;;;;2057630;28;20312;-67
2023/08/30 02:43:51;;;;;;;12.67;10.90;;;9.20;99.90;;;;;;2045818;28;20238;-68
2023/08/30 02:44:52;;;;;;;11.73;10.50;;;9.10;99.90;;;;;;2056551;28;20233;-67
2023/08/30 02:45:53;;;;;;;11.73;10.15;;;9.20;99.90;;;;;;2062740;28;20278;-68
2023/08/30 02:46:54;;;;;;;11.03;9.93;;;9.10;99.90;;;;;;2062003;28;20620;-68
2023/08/30 02:47:58;;;;;;;13.00;11.33;;;9.10;99.90;;;;;;2053919;28;20228;-68
2023/08/30 02:48:58;;;;;;;11.30;10.07;;;9.10;99.90;;;;;;2059910;28;20319;-68
2023/08/30 02:49:59;;;;;;;11.20;10.00;;;9.10;99.90;;;;;;2053188;28;20250;-68
2023/08/30 02:51:00;;;;;;;10.10;9.10;;;9.00;99.90;;;;;;2053612;28;20238;-68
2023/08/30 02:52:00;;;;;;;11.03;9.83;;;9.00;99.90;;;;;;2062368;28;21315;-68
2023/08/30 02:53:01;;;;;;;13.03;10.87;;;9.00;99.90;;;;;;2063994;28;20223;-68
2023/08/30 02:54:02;;;;;;;14.63;11.60;;;9.00;99.90;;;;;;2054066;28;20279;-69
2023/08/30 02:55:04;;;;;;;11.20;9.52;;;8.90;99.90;;;;;;2055791;28;20216;-69
2023/08/30 02:56:05;;;;;;;11.80;10.60;;;8.90;99.90;;;;;;2063078;28;20201;-68
2023/08/30 02:57:06;;;;;;;10.60;9.53;;;9.00;99.90;;;;;;2062800;28;20189;-68
2023/08/30 02:58:07;;;;;;;10.40;9.23;;;9.00;99.90;;;;;;2062721;28;20698;-68
2023/08/30 02:59:07;;;;;;;16.25;13.38;;;9.00;99.90;;;;;;2062270;28;20591;-68
2023/08/30 03:00:09;;;;;;;11.37;10.17;;;8.90;99.90;;;;;;2053456;28;20201;-68
2023/08/30 03:01:10;;;;;;;11.93;10.40;;;8.90;99.90;;;;;;2059434;28;20215;-68
2023/08/30 03:02:10;;;;;;;10.87;9.77;;;8.90;99.90;;;;;;2062635;28;20192;-68
2023/08/30 03:03:11;;;;;;;11.17;10.07;;;8.90;99.90;;;;;;2062529;28;20214;-68
2023/08/30 03:04:12;;;;;;;11.90;10.40;;;8.90;99.90;;;;;;2061095;28;20782;-68
2023/08/30 03:05:13;;;;;;;11.25;10.07;;;8.90;99.90;;;;;;2062505;28;20183;-69
2023/08/30 03:06:14;;;;;;;13.70;10.47;;;8.90;99.90;;;;;;2061845;28;20749;-68
2023/08/30 03:07:15;;;;;;;15.03;12.10;;;8.80;99.90;;;;;;2062384;28;20187;-68
2023/08/30 03:08:15;;;;;;;15.13;12.65;;;8.90;99.90;;;;;;2055348;28;20183;-68
2023/08/30 03:09:16;;;;;;;16.27;12.47;;;8.80;99.90;;;;;;2053465;28;20239;-68
2023/08/30 03:10:17;;;;;;;9.37;8.47;;;8.90;99.90;;;;;;2061425;28;20213;-68
2023/08/30 03:11:18;;;;;;;10.83;9.27;;;8.90;99.90;;;;;;2061126;28;20208;-69
2023/08/30 03:12:18;;;;;;;11.23;10.03;;;8.80;99.90;;;;;;2061869;28;20176;-69
2023/08/30 03:13:19;;;;;;;13.37;10.20;;;8.80;99.90;;;;;;2057923;28;20214;-68
2023/08/30 03:14:20;;;;;;;11.57;10.37;;;8.80;99.90;;;;;;2057128;28;20217;-68
2023/08/30 03:15:20;;;;;;;10.90;9.40;;;8.70;99.90;;;;;;2057391;28;20188;-68
2023/08/30 03:16:21;;;;;;;12.53;9.73;;;8.80;99.90;;;;;;2069113;28;20182;-68
2023/08/30 03:17:22;;;;;;;12.60;9.77;;;8.80;99.90;;;;;;2062984;28;20277;-68
2023/08/30 03:18:22;;;;;;;10.60;9.60;;;8.80;99.90;;;;;;2054957;28;20295;-68
2023/08/30 03:19:23;;;;;;;12.30;10.43;;;8.80;99.90;;;;;;2050146;28;20237;-68
2023/08/30 03:20:24;;;;;;;11.77;10.57;;;8.80;99.90;;;;;;2061714;28;20238;-68
2023/08/30 03:21:24;;;;;;;10.30;9.30;;;8.70;99.90;;;;;;2063480;28;20280;-68
2023/08/30 03:22:25;;;;;;;9.77;8.80;;;8.70;99.90;;;;;;2062879;28;20267;-67
2023/08/30 03:23:26;;;;;;;10.93;9.73;;;8.60;99.90;;;;;;2068873;28;20252;-68
2023/08/30 03:24:27;;;;;;;9.50;8.60;;;8.60;99.90;;;;;;2065188;28;20227;-68
2023/08/30 03:25:30;;;;;;;10.57;8.73;;;8.60;99.90;;;;;;2057932;28;20476;-68
2023/08/30 03:26:31;;;;;;;10.85;9.75;;;8.60;99.90;;;;;;2065918;28;20268;-68
2023/08/30 03:27:33;;;;;;;9.67;8.67;;;8.60;99.90;;;;;;2065678;28;20228;-68
2023/08/30 03:28:33;;;;;;;10.32;9.32;;;8.50;99.90;;;;;;2065337;28;20231;-68
2023/08/30 03:29:34;;;;;;;11.47;9.40;;;8.50;99.90;;;;;;2050589;28;20231;-68
2023/08/30 03:30:35;;;;;;;10.63;9.63;;;8.50;99.90;;;;;;2057052;28;20338;-69
2023/08/30 03:31:36;;;;;;;8.93;7.90;;;8.50;99.90;;;;;;2055257;28;20597;-68
2023/08/30 03:32:36;;;;;;;11.20;9.77;;;8.50;99.90;;;;;;2058562;28;20227;-68
2023/08/30 03:33:37;;;;;;;10.83;9.73;;;8.60;99.90;;;;;;2055445;28;20783;-68
2023/08/30 03:34:38;;;;;;;10.00;8.90;;;8.50;99.90;;;;;;2047067;28;20701;-68
2023/08/30 03:35:38;;;;;;;10.33;8.90;;;8.50;99.90;;;;;;2039484;28;20385;-68
2023/08/30 03:36:43;;;;;;;9.93;8.63;;;8.50;99.90;;;;;;2055743;28;20234;-68
2023/08/30 03:37:44;;;;;;;9.52;8.63;;;8.40;99.90;;;;;;2051380;28;20228;-68
2023/08/30 03:38:45;;;;;;;8.33;7.53;;;8.50;99.90;;;;;;2060657;28;20257;-68
2023/08/30 03:39:46;;;;;;;9.50;8.60;;;8.50;99.90;;;;;;2063548;28;20230;-68
2023/08/30 03:40:53;;;;;;;8.63;7.83;;;8.50;99.90;;;;;;2059415;28;20313;-68
2023/08/30 03:41:53;;;;;;;9.50;7.72;;;8.50;99.90;;;;;;2059838;28;20269;-68
2023/08/30 03:42:54;;;;;;;9.33;8.43;;;8.40;99.90;;;;;;2062387;28;20226;-68
2023/08/30 03:43:55;;;;;;;9.30;8.33;;;8.40;99.90;;;;;;2062899;28;20322;-68
2023/08/30 03:44:55;;;;;;;9.53;8.63;;;8.40;99.90;;;;;;2064258;28;20261;-68
2023/08/30 03:45:56;;;;;;;11.87;9.87;;;8.40;99.90;;;;;;2059063;28;20219;-68
2023/08/30 03:46:57;;;;;;;9.87;8.87;;;8.30;99.90;;;;;;2054507;28;20229;-68
2023/08/30 03:47:57;;;;;;;10.27;9.27;;;8.40;99.90;;;;;;2054943;28;20252;-68
2023/08/30 03:48:58;;;;;;;12.20;9.73;;;8.40;99.90;;;;;;2054892;28;20277;-68
2023/08/30 03:49:59;;;;;;;10.13;9.13;;;8.40;99.90;;;;;;2062604;28;20255;-68
2023/08/30 03:50:59;;;;;;;10.67;8.50;;;8.40;99.90;;;;;;2067058;28;20234;-68
2023/08/30 03:52:00;;;;;;;10.93;9.27;;;8.30;99.90;;;;;;2066938;28;20271;-68
2023/08/30 03:53:01;;;;;;;11.47;10.07;;;8.30;99.90;;;;;;2067129;28;20288;-70
2023/08/30 03:54:02;;;;;;;10.18;9.23;;;8.30;99.90;;;;;;2061953;28;20222;-69
2023/08/30 03:55:03;;;;;;;9.23;8.10;;;8.40;99.90;;;;;;2063370;28;20545;-69
2023/08/30 03:56:04;;;;;;;10.60;9.50;;;8.40;99.90;;;;;;2064373;28;20209;-69
2023/08/30 03:57:05;;;;;;;10.27;9.27;;;8.50;99.90;;;;;;2063573;28;20225;-68
2023/08/30 03:58:06;;;;;;;10.73;9.73;;;8.50;99.90;;;;;;2061974;28;20231;-69
2023/08/30 03:59:07;;;;;;;13.50;11.95;;;8.60;99.90;;;;;;2054881;28;20639;-68
2023/08/30 04:00:10;;;;;;;9.60;8.68;;;8.60;99.90;;;;;;2062938;28;20190;-69
2023/08/30 04:01:11;;;;;;;12.15;10.93;;;8.60;99.90;;;;;;2063194;28;20270;-68
2023/08/30 04:02:12;;;;;;;9.60;8.67;;;8.70;99.90;;;;;;2052068;28;20194;-68
2023/08/30 04:03:15;;;;;;;10.53;9.53;;;8.60;99.90;;;;;;2062700;28;20662;-68
2023/08/30 04:04:16;;;;;;;8.65;7.88;;;8.50;99.90;;;;;;2070845;28;20196;-68
2023/08/30 04:05:16;;;;;;;23.73;19.13;;;8.50;99.90;;;;;;2062800;28;20203;-68
2023/08/30 04:06:17;;;;;;;13.30;11.53;;;8.40;99.90;;;;;;2054869;28;20191;-68
2023/08/30 04:07:18;;;;;;;12.52;10.20;;;8.30;99.90;;;;;;2062545;28;20184;-68
2023/08/30 04:08:19;;;;;;;13.90;9.63;;;8.30;99.90;;;;;;2063297;28;20284;-68
2023/08/30 04:09:20;;;;;;;11.87;9.90;;;8.20;99.90;;;;;;2062871;28;20288;-68
2023/08/30 04:10:21;;;;;;;13.63;11.60;;;8.20;99.90;;;;;;2054328;28;20933;-68
2023/08/30 04:11:23;;;;;;;11.13;9.23;;;8.20;99.90;;;;;;2056085;28;20237;-68
2023/08/30 04:12:23;;;;;;;13.02;11.20;;;8.10;99.90;;;;;;2058627;28;20683;-69
2023/08/30 04:13:24;;;;;;;13.10;11.30;;;8.10;99.90;;;;;;2059584;28;20238;-68
2023/08/30 04:14:25;;;;;;;12.95;11.43;;;8.00;99.90;;;;;;2063002;28;20224;-68
2023/08/30 04:15:26;;;;;;;10.93;9.50;;;8.10;99.90;;;;;;2070484;28;20314;-68
2023/08/30 04:16:26;;;;;;;12.53;10.70;;;8.10;99.90;;;;;;2058631;28;20218;-68
2023/08/30 04:17:27;;;;;;;12.23;10.97;;;8.10;99.90;;;;;;2059056;28;20228;-68
2023/08/30 04:18:28;;;;;;;12.60;10.93;;;8.20;99.90;;;;;;2059165;28;20703;-68
2023/08/30 04:19:28;;;;;;;12.23;10.93;;;8.20;99.90;;;;;;2063930;28;21002;-68
2023/08/30 04:20:30;;;;;;;12.30;10.10;;;8.20;99.90;;;;;;2074694;28;20230;-68
2023/08/30 04:21:31;;;;;;;11.77;10.30;;;8.20;99.90;;;;;;2074286;28;20228;-68
2023/08/30 04:22:34;;;;;;;10.60;9.50;;;8.30;99.90;;;;;;2065912;28;20272;-68
2023/08/30 04:23:35;;;;;;;9.98;8.73;;;8.30;99.90;;;;;;2062402;28;20241;-69
2023/08/30 04:24:36;;;;;;;10.75;9.65;;;8.30;99.90;;;;;;2062870;28;20228;-68
2023/08/30 04:25:37;;;;;;;14.23;10.43;;;8.40;99.90;;;;;;2070441;28;20278;-68
2023/08/30 04:26:37;;;;;;;11.60;10.40;;;8.40;99.90;;;;;;2065540;28;20229;-68
2023/08/30 04:27:38;;;;;;;11.73;10.37;;;8.40;99.90;;;;;;2058549;28;20717;-68
2023/08/30 04:28:39;;;;;;;10.87;9.23;;;8.40;99.90;;;;;;2062103;28;20287;-68
2023/08/30 04:29:40;;;;;;;14.57;12.20;;;8.50;99.90;;;;;;2062598;28;20232;-68
2023/08/30 04:30:40;;;;;;;10.63;9.50;;;8.50;99.90;;;;;;2046725;28;20319;-68
2023/08/30 04:31:43;;;;;;;11.57;10.37;;;8.50;99.90;;;;;;2062112;28;20296;-68
2023/08/30 04:32:44;;;;;;;10.90;9.73;;;8.50;99.90;;;;;;2062909;28;20230;-68
2023/08/30 04:33:45;;;;;;;10.47;9.37;;;8.50;99.90;;;;;;2062402;28;20330;-68
2023/08/30 04:34:45;;;;;;;10.07;9.07;;;8.40;99.90;;;;;;2070948;28;20237;-68
2023/08/30 04:35:51;;;;;;;11.17;9.83;;;8.50;99.90;;;;;;2065740;28;20289;-68
2023/08/30 04:36:52;;;;;;;9.95;8.95;;;8.50;99.90;;;;;;2056350;28;20238;-68
2023/08/30 04:37:53;;;;;;;12.80;10.53;;;8.50;99.90;;;;;;2062780;28;20224;-68
2023/08/30 04:38:54;;;;;;;11.03;9.67;;;8.50;99.90;;;;;;2063941;28;20224;-68
2023/08/30 04:39:56;;;;;;;13.35;10.05;;;8.50;99.90;;;;;;2063247;28;20220;-68
2023/08/30 04:40:59;;;;;;;9.90;8.95;;;8.50;99.90;;;;;;2063760;28;20345;-68
2023/08/30 04:42:00;;;;;;;9.82;8.82;;;8.50;99.90;;;;;;2062386;28;20287;-68
2023/08/30 04:43:01;;;;;;;10.95;9.40;;;8.50;99.90;;;;;;2063185;28;20794;-68
2023/08/30 04:44:02;;;;;;;11.77;10.30;;;8.50;99.90;;;;;;2062112;28;20285;-70
2023/08/30 04:45:05;;;;;;;9.65;8.75;;;8.40;99.90;;;;;;2063622;28;20274;-68
2023/08/30 04:46:06;;;;;;;12.77;10.35;;;8.30;99.90;;;;;;2068012;28;20563;-68
2023/08/30 04:47:08;;;;;;;9.97;8.73;;;8.30;99.90;;;;;;2057917;28;20203;-68
2023/08/30 04:48:08;;;;;;;8.90;8.00;;;8.20;99.90;;;;;;2060266;28;20634;-68
2023/08/30 04:49:09;;;;;;;10.57;9.43;;;8.10;99.90;;;;;;2063618;28;20198;-68
2023/08/30 04:50:10;;;;;;;9.90;8.40;;;7.90;99.90;;;;;;2054171;28;20185;-67
2023/08/30 04:51:10;;;;;;;9.40;8.40;;;7.80;99.90;;;;;;2041380;28;20210;-68
2023/08/30 04:52:11;;;;;;;11.37;10.27;;;7.80;99.90;;;;;;2052920;28;20183;-68
2023/08/30 04:53:12;;;;;;;11.00;9.23;;;7.80;99.90;;;;;;2062767;28;20590;-68
2023/08/30 04:54:13;;;;;;;13.80;11.13;;;7.80;99.90;;;;;;2062927;28;20191;-67
2023/08/30 04:55:15;;;;;;;11.90;10.25;;;7.90;99.90;;;;;;2054997;28;20230;-68
2023/08/30 04:56:18;;;;;;;11.23;10.00;;;8.00;99.90;;;;;;2062627;28;20234;-68
2023/08/30 04:57:18;;;;;;;10.95;9.65;;;8.10;99.90;;;;;;2062625;28;20203;-67
2023/08/30 04:58:19;;;;;;;11.33;9.90;;;8.20;99.90;;;;;;2045088;28;20333;-67
2023/08/30 04:59:20;;;;;;;10.50;9.40;;;8.20;99.90;;;;;;2054125;28;20247;-67
2023/08/30 05:00:21;;;;;;;10.67;9.67;;;8.30;99.90;;;;;;2063086;28;20730;-68
2023/08/30 05:01:21;;;;;;;11.38;10.18;;;8.40;99.90;;;;;;2061920;28;20238;-67
2023/08/30 05:02:22;;;;;;;11.13;10.03;;;8.40;99.90;;;;;;2062539;28;20236;-68
2023/08/30 05:03:23;;;;;;;9.50;8.60;;;8.50;99.90;;;;;;2063242;28;20244;-67
2023/08/30 05:04:24;;;;;;;11.00;9.90;;;8.50;99.90;;;;;;2054410;28;20357;-67
2023/08/30 05:05:25;;;;;;;10.38;8.88;;;8.50;99.90;;;;;;2045842;28;20247;-67
2023/08/30 05:06:26;;;;;;;9.47;8.57;;;8.50;99.90;;;;;;2054044;28;20388;-67
2023/08/30 05:07:36;;;;;;;10.23;9.05;;;8.50;99.90;;;;;;2060840;28;20228;-67
2023/08/30 05:08:37;;;;;;;10.18;8.70;;;8.60;99.90;;;;;;2063799;28;20610;-67
2023/08/30 05:09:40;;;;;;;9.27;8.37;;;8.60;99.90;;;;;;2063161;28;20264;-67
2023/08/30 05:10:42;;;;;;;8.65;7.75;;;8.60;99.90;;;;;;2062416;28;20236;-67
2023/08/30 05:11:43;;;;;;;9.30;8.35;;;8.70;99.90;;;;;;2058462;28;20683;-67
2023/08/30 05:12:49;;;;;;;8.87;7.73;;;8.70;99.90;;;;;;2063368;28;20376;-67
2023/08/30 05:13:50;;;;;;;7.47;6.70;;;8.70;99.90;;;;;;2062633;28;20226;-67
2023/08/30 05:14:50;;;;;;;10.23;8.20;;;8.70;99.90;;;;;;2061801;28;20246;-67
2023/08/30 05:15:51;;;;;;;9.07;8.00;;;8.60;99.90;;;;;;2060876;28;20576;-67
2023/08/30 05:16:53;;;;;;;9.93;8.00;;;8.60;99.90;;;;;;2063380;28;20283;-67
2023/08/30 05:17:54;;;;;;;9.52;8.07;;;8.60;99.90;;;;;;2062969;28;20669;-66
2023/08/30 05:18:54;;;;;;;11.07;7.60;;;8.50;99.90;;;;;;2062518;28;20236;-69
2023/08/30 05:19:55;;;;;;;8.57;7.50;;;8.60;99.90;;;;;;2062077;28;20291;-66
2023/08/30 05:20:56;;;;;;;8.60;7.70;;;8.60;99.90;;;;;;2056381;28;20608;-67